Time;durP1;ratioP1;P1;durP2;ratioP2;P2;SDS_P1;SDS_P2;PMS_P1;PMS_P2;Temp;Humidity;BMP_temperature;BMP_pressure;BME280_temperature;BME280_humidity;BME280_pressure;Samples;Min_cycle;Max_cycle;Signal;HPM_P1;HPM_P2
2022/12/28 00:00:51;;;;;;;7.20;3.10;;;;;;;5.34;100.00;101650.84;5116592;28;20431;-36
2022/12/28 00:03:17;;;;;;;5.33;2.57;;;;;;;5.34;100.00;101650.84;5116986;28;20020;-37
2022/12/28 00:05:42;;;;;;;6.03;3.60;;;;;;;5.31;100.00;101630.56;5116299;28;20027;-37
2022/12/28 00:08:08;;;;;;;5.50;2.97;;;;;;;5.33;100.00;101627.72;5098364;28;20367;-37
2022/12/28 00:10:33;;;;;;;7.30;3.00;;;;;;;5.36;100.00;101619.28;5116098;28;20337;-37
2022/12/28 00:12:58;;;;;;;5.93;3.05;;;;;;;5.36;100.00;101617.44;5115162;28;20050;-37
2022/12/28 00:15:24;;;;;;;6.50;3.10;;;;;;;5.37;100.00;101605.72;5115918;28;20027;-37
2022/12/28 00:17:49;;;;;;;7.00;2.53;;;;;;;5.30;100.00;101580.63;5116327;28;20027;-37
2022/12/28 00:20:15;;;;;;;7.83;3.03;;;;;;;5.38;100.00;101588.63;5115895;28;20031;-37
2022/12/28 00:22:40;;;;;;;6.13;2.80;;;;;;;5.39;100.00;101587.59;5116051;28;20023;-37
2022/12/28 00:25:06;;;;;;;5.83;2.60;;;;;;;5.40;100.00;101580.38;5115598;28;20326;-37
2022/12/28 00:27:32;;;;;;;6.78;3.08;;;;;;;5.40;100.00;101567.81;5115824;28;20035;-37
2022/12/28 00:29:57;;;;;;;6.93;2.95;;;;;;;5.39;100.00;101559.94;5116019;28;20023;-37
2022/12/28 00:32:22;;;;;;;7.57;3.10;;;;;;;5.38;100.00;101569.84;5115715;28;20031;-37
2022/12/28 00:34:48;;;;;;;6.90;2.70;;;;;;;5.39;100.00;101570.66;5115436;28;20058;-37
2022/12/28 00:37:13;;;;;;;5.97;2.83;;;;;;;5.39;100.00;101558.09;5115305;28;20027;-37
2022/12/28 00:39:40;;;;;;;7.57;2.77;;;;;;;5.39;100.00;101551.91;5115726;28;20027;-37
2022/12/28 00:42:05;;;;;;;5.18;2.92;;;;;;;5.42;100.00;101554.22;5097299;28;20034;-37
2022/12/28 00:44:31;;;;;;;5.73;2.73;;;;;;;5.46;100.00;101549.31;5116024;28;20047;-36
2022/12/28 00:46:56;;;;;;;7.03;3.37;;;;;;;5.45;100.00;101539.59;5116275;28;20047;-37
2022/12/28 00:49:21;;;;;;;5.63;3.00;;;;;;;5.46;100.00;101534.06;5115406;28;20020;-37
2022/12/28 00:51:47;;;;;;;7.93;3.10;;;;;;;5.50;100.00;101531.84;5115845;28;20024;-37
2022/12/28 00:54:12;;;;;;;7.20;2.97;;;;;;;5.50;100.00;101521.13;5115855;28;20016;-37
2022/12/28 00:56:40;;;;;;;5.03;2.33;;;;;;;5.53;100.00;101518.09;5115291;28;20031;-37
2022/12/28 00:59:05;;;;;;;7.43;2.97;;;;;;;5.55;100.00;101513.34;5115491;28;20054;-37
2022/12/28 01:01:30;;;;;;;5.93;3.03;;;;;;;5.55;100.00;101513.34;5115307;28;20070;-37
2022/12/28 01:03:57;;;;;;;5.17;3.00;;;;;;;5.58;100.00;101523.75;5115357;28;20034;-37
2022/12/28 01:06:22;;;;;;;5.40;2.97;;;;;;;5.59;100.00;101514.66;5115006;28;20055;-37
2022/12/28 01:08:48;;;;;;;8.20;3.40;;;;;;;5.56;100.00;101498.94;5115294;28;20475;-37
2022/12/28 01:11:22;;;;;;;6.67;3.13;;;;;;;5.58;100.00;101496.91;5115288;28;20463;-37
2022/12/28 01:13:49;;;;;;;6.35;2.75;;;;;;;5.66;100.00;101503.03;5115774;28;20104;-37
2022/12/28 01:16:16;;;;;;;4.88;3.35;;;;;;;5.60;100.00;101490.34;5114902;28;20106;-37
2022/12/28 01:18:42;;;;;;;5.07;2.55;;;;;;;5.67;100.00;101482.41;5114818;28;20028;-37
2022/12/28 01:21:10;;;;;;;7.93;3.95;;;;;;;5.69;100.00;101477.69;5114693;28;20050;-37
2022/12/28 01:23:36;;;;;;;4.40;2.67;;;;;;;5.72;100.00;101488.06;5114653;28;20023;-37
2022/12/28 01:26:02;;;;;;;4.77;2.63;;;;;;;5.75;100.00;101482.31;5114704;28;20039;-37
2022/12/28 01:28:28;;;;;;;5.90;3.25;;;;;;;5.75;100.00;101481.47;5115154;28;20253;-37
2022/12/28 01:30:53;;;;;;;6.03;2.88;;;;;;;5.78;100.00;101478.44;5115310;28;20096;-37
2022/12/28 01:33:19;;;;;;;6.23;2.70;;;;;;;5.78;100.00;101463.16;5114872;28;20035;-37
2022/12/28 01:35:44;;;;;;;4.87;2.90;;;;;;;5.80;100.00;101461.09;5114520;28;20027;-37
2022/12/28 01:38:09;;;;;;;4.97;2.70;;;;;;;5.76;100.00;101442.88;5114512;28;20095;-37
2022/12/28 01:40:35;;;;;;;3.93;2.77;;;;;;;5.82;100.00;101464.47;5114116;28;20050;-37
2022/12/28 01:43:00;;;;;;;4.40;2.50;;;;;;;5.83;100.00;101447.34;5114289;28;20344;-37
2022/12/28 01:45:26;;;;;;;5.57;2.88;;;;;;;5.82;100.00;101451.03;5114968;28;20456;-37
2022/12/28 01:47:53;;;;;;;9.80;3.37;;;;;;;5.86;100.00;101444.28;5114812;28;20031;-37
2022/12/28 01:50:25;;;;;;;5.72;3.03;;;;;;;5.87;100.00;101431.69;5114218;28;20027;-37
2022/12/28 01:52:59;;;;;;;5.65;2.40;;;;;;;5.88;100.00;101434.19;5114671;28;20042;-37
2022/12/28 01:55:29;;;;;;;6.85;3.33;;;;;;;5.94;100.00;101435.31;5114675;28;20028;-37
2022/12/28 01:58:02;;;;;;;6.60;2.80;;;;;;;5.95;100.00;101431.63;5114204;28;20479;-37
2022/12/28 02:00:28;;;;;;;3.65;2.80;;;;;;;5.98;100.00;101419.69;5113844;28;20031;-37
2022/12/28 02:02:58;;;;;;;6.50;2.95;;;;;;;5.93;100.00;101396.91;5114272;28;20077;-37
2022/12/28 02:05:32;;;;;;;5.78;2.78;;;;;;;6.00;100.00;101406.91;5114573;28;20106;-37
2022/12/28 02:08:10;;;;;;;3.42;2.38;;;;;;;6.03;100.00;101399.31;5113984;28;20084;-37
2022/12/28 02:10:36;;;;;;;4.20;2.50;;;;;;;6.00;100.00;101388.94;5114367;28;20028;-37
2022/12/28 02:13:03;;;;;;;5.93;2.78;;;;;;;6.09;100.00;101389.66;5113800;28;20089;-37
2022/12/28 02:15:29;;;;;;;7.55;3.03;;;;;;;6.06;100.00;101366.72;5113832;28;20023;-37
2022/12/28 02:17:56;;;;;;;6.05;3.22;;;;;;;6.09;100.00;101373.56;5113993;28;20032;-37
2022/12/28 02:20:29;;;;;;;5.82;2.85;;;;;;;6.13;100.00;101374.84;5113670;28;20476;-37
2022/12/28 02:23:23;;;;;;;5.78;3.05;;;;;;;6.13;100.00;101362.25;5113817;28;20456;-37
2022/12/28 02:26:22;;;;;;;5.68;2.53;;;;;;;6.13;100.00;101362.25;5050791;28;20037;-37
2022/12/28 02:29:06;;;;;;;5.03;2.80;;;;;;;6.13;100.00;101348.81;5050982;28;20033;-37
2022/12/28 02:32:07;;;;;;;5.57;2.85;;;;;;;6.13;100.00;101337.25;5051053;28;20330;-37
2022/12/28 02:34:42;;;;;;;5.75;2.67;;;;;;;6.09;100.00;101338.66;5050758;28;20029;-37
2022/12/28 02:37:22;;;;;;;6.88;2.50;;;;;;;6.12;100.00;101343.66;5050978;28;20481;-37
2022/12/28 02:40:08;;;;;;;5.25;2.70;;;;;;;6.15;100.00;101335.22;5050566;28;20029;-37
2022/12/28 02:42:35;;;;;;;4.97;3.13;;;;;;;6.14;100.00;101330.84;5051142;28;20485;-37
2022/12/28 02:50:42;;;;;;;5.15;3.08;;;;;;;6.13;100.00;101326.50;5051354;28;20374;-36
2022/12/28 02:53:30;;;;;;;4.47;3.33;;;;;;;6.07;100.00;101319.22;5042672;28;20145;-36
2022/12/28 02:56:07;;;;;;;5.57;2.70;;;;;;;6.10;100.00;101321.50;5050642;28;20037;-36
2022/12/28 02:59:03;;;;;;;4.70;3.00;;;;;;;6.08;100.00;101321.72;5050814;28;20029;-36
2022/12/28 03:01:47;;;;;;;7.18;3.30;;;;;;;6.01;100.00;101311.94;5050837;28;20096;-36
2022/12/28 03:04:44;;;;;;;5.95;3.03;;;;;;;6.02;100.00;101295.63;5105775;28;20060;-36
2022/12/28 03:10:26;;;;;;;6.28;3.83;;;;;;;6.03;100.00;101301.81;5113493;28;20061;-37
2022/12/28 03:13:04;;;;;;;5.28;3.88;;;;;;;6.04;100.00;101303.47;5113617;28;20036;-37
2022/12/28 03:15:34;;;;;;;5.72;4.22;;;;;;;6.02;100.00;101292.13;5113187;28;20032;-37
2022/12/28 03:32:06;;;;;;;3.95;3.50;;;;;;;6.13;100.00;101270.94;5113410;28;20387;-37
2022/12/28 03:34:32;;;;;;;7.13;4.00;;;;;;;6.15;100.00;101276.97;5113272;28;20032;-37
2022/12/28 03:37:06;;;;;;;5.25;3.97;;;;;;;6.16;100.00;101275.94;5112479;28;20390;-37
2022/12/28 03:39:39;;;;;;;4.93;3.85;;;;;;;6.19;100.00;101269.34;5113301;28;20038;-37
2022/12/28 03:45:16;;;;;;;9.90;4.20;;;;;;;6.20;100.00;101260.28;5113825;28;20050;-37
2022/12/28 03:47:43;;;;;;;6.88;3.88;;;;;;;6.25;100.00;101260.53;5114880;28;20488;-37
2022/12/28 03:50:10;;;;;;;7.53;3.85;;;;;;;6.26;100.00;101253.31;5117276;28;20057;-37
2022/12/28 03:52:35;;;;;;;4.47;3.80;;;;;;;6.23;100.00;101243.78;5117007;28;20035;-37
2022/12/28 03:55:01;;;;;;;5.27;3.37;;;;;;;6.32;100.00;101256.06;5116489;28;20032;-37
2022/12/28 03:57:26;;;;;;;6.60;4.20;;;;;;;6.33;100.00;101243.44;5116365;28;20034;-37
2022/12/28 03:59:51;;;;;;;6.40;3.97;;;;;;;6.36;100.00;101246.59;5116403;28;20027;-37
2022/12/28 04:02:17;;;;;;;5.43;3.70;;;;;;;6.40;100.00;101245.19;5096972;28;20039;-37
2022/12/28 04:04:42;;;;;;;6.33;3.50;;;;;;;6.43;100.00;101241.25;5116981;28;20038;-37
2022/12/28 04:07:07;;;;;;;6.00;3.97;;;;;;;6.45;100.00;101231.16;5115917;28;20027;-37
2022/12/28 04:09:33;;;;;;;4.80;3.40;;;;;;;6.48;100.00;101230.75;5116257;28;20023;-37
2022/12/28 04:11:58;;;;;;;5.67;4.23;;;;;;;6.51;100.00;101245.69;5116185;28;20020;-37
2022/12/28 04:14:23;;;;;;;4.70;3.83;;;;;;;6.49;100.00;101226.22;5116128;28;20035;-37
2022/12/28 04:16:49;;;;;;;5.17;3.87;;;;;;;6.53;100.00;101227.50;5098052;28;20031;-37
2022/12/28 04:19:14;;;;;;;7.00;3.70;;;;;;;6.52;100.00;101223.97;5116410;28;20023;-37
2022/12/28 04:21:39;;;;;;;5.23;3.50;;;;;;;6.62;100.00;101229.84;5116076;28;20088;-37
2022/12/28 04:24:05;;;;;;;5.50;3.40;;;;;;;6.56;100.00;101217.19;5116119;28;20281;-37
2022/12/28 04:26:30;;;;;;;7.63;3.40;;;;;;;6.67;100.00;101234.63;5115985;28;20081;-37
2022/12/28 04:29:00;;;;;;;5.65;3.60;;;;;;;6.69;100.00;101235.28;5115639;28;20031;-37
2022/12/28 04:31:27;;;;;;;9.63;4.70;;;;;;;6.70;100.00;101232.38;5115965;28;20111;-37
2022/12/28 04:33:53;;;;;;;4.90;3.40;;;;;;;6.66;100.00;101222.22;5115723;28;20115;-37
2022/12/28 04:36:18;;;;;;;4.63;3.53;;;;;;;6.68;100.00;101236.28;5115894;28;20107;-37
2022/12/28 04:38:43;;;;;;;7.03;3.50;;;;;;;6.77;100.00;101232.41;5116278;28;20098;-37
2022/12/28 04:41:10;;;;;;;6.47;3.60;;;;;;;6.75;100.00;101228.28;5115571;28;20035;-37
2022/12/28 04:43:36;;;;;;;7.78;3.13;;;;;;;6.78;100.00;101212.56;5115696;28;20130;-37
2022/12/28 04:46:05;;;;;;;6.45;3.17;;;;;;;6.84;100.00;101233.31;5115663;28;20070;-37
2022/12/28 04:48:30;;;;;;;4.70;3.65;;;;;;;6.85;100.00;101231.47;5116351;28;20066;-37
2022/12/28 04:50:56;;;;;;;7.53;3.50;;;;;;;6.81;100.00;101222.94;5115540;28;20127;-37
2022/12/28 04:53:22;;;;;;;8.30;4.13;;;;;;;6.89;100.00;101230.88;5115663;28;20479;-37
2022/12/28 04:55:48;;;;;;;4.07;2.55;;;;;;;6.83;100.00;101215.53;5115430;28;20031;-37
2022/12/28 04:58:13;;;;;;;4.97;3.10;;;;;;;6.90;100.00;101227.13;5115023;28;20028;-37
2022/12/28 05:00:39;;;;;;;4.95;3.35;;;;;;;6.93;100.00;101221.38;5115242;28;20114;-37
2022/12/28 05:03:04;;;;;;;6.13;2.93;;;;;;;6.93;100.00;101213.31;5115688;28;20023;-37
2022/12/28 05:05:30;;;;;;;4.20;2.90;;;;;;;6.97;100.00;101205.66;5115089;28;20412;-37
2022/12/28 05:08:00;;;;;;;4.40;2.85;;;;;;;6.96;100.00;101207.53;5115138;28;20077;-37
2022/12/28 05:10:25;;;;;;;7.05;4.30;;;;;;;6.99;100.00;101194.72;5115466;28;20027;-37
2022/12/28 05:12:51;;;;;;;5.00;3.07;;;;;;;6.94;100.00;101193.47;5115089;28;20035;-37
2022/12/28 05:15:16;;;;;;;6.83;3.37;;;;;;;6.93;100.00;101194.50;5114618;28;20023;-37
2022/12/28 05:17:41;;;;;;;4.50;2.93;;;;;;;7.00;100.00;101213.34;5115547;28;20027;-37
2022/12/28 05:20:07;;;;;;;5.63;3.10;;;;;;;6.99;100.00;101205.47;5115224;28;20016;-37
2022/12/28 05:22:32;;;;;;;6.90;3.30;;;;;;;6.98;100.00;101204.66;5114638;28;20356;-37
2022/12/28 05:24:57;;;;;;;4.00;3.27;;;;;;;6.98;100.00;101204.66;5114623;28;20491;-37
2022/12/28 05:27:23;;;;;;;4.57;3.20;;;;;;;7.00;100.00;101213.34;5114742;28;20023;-37
2022/12/28 05:29:48;;;;;;;4.10;2.87;;;;;;;6.98;100.00;101210.03;5115463;28;20455;-37
2022/12/28 05:32:13;;;;;;;7.70;4.30;;;;;;;6.99;100.00;101216.25;5114887;28;20089;-37
2022/12/28 05:34:39;;;;;;;6.03;3.30;;;;;;;6.99;100.00;101211.69;5115380;28;20020;-37
2022/12/28 05:37:04;;;;;;;4.50;2.70;;;;;;;6.91;100.00;101193.84;5114437;28;20365;-37
2022/12/28 05:39:30;;;;;;;4.50;3.40;;;;;;;6.94;100.00;101206.06;5115019;28;20031;-37
2022/12/28 05:41:58;;;;;;;7.63;3.80;;;;;;;6.99;100.00;101200.09;5114198;28;20039;-37
2022/12/28 05:44:25;;;;;;;9.63;3.70;;;;;;;7.01;100.00;101211.47;5114913;28;20498;-37
2022/12/28 05:46:50;;;;;;;;;;;;;;;7.03;100.00;101201.34;5114881;28;20028;-37
2022/12/28 05:49:15;;;;;;;4.93;3.27;;;;;;;7.01;100.00;101211.47;5114571;28;19964;-37
2022/12/28 05:51:41;;;;;;;4.80;3.10;;;;;;;7.01;100.00;101195.34;5113962;28;20285;-37
2022/12/28 05:54:06;;;;;;;4.60;3.20;;;;;;;6.95;100.00;101188.91;5114453;28;20371;-37
2022/12/28 05:56:32;;;;;;;4.17;3.20;;;;;;;7.02;100.00;101195.13;5114381;28;20019;-37
2022/12/28 05:59:03;;;;;;;5.65;3.30;;;;;;;7.04;100.00;101192.28;5114395;28;20024;-37
2022/12/28 06:01:31;;;;;;;3.63;2.90;;;;;;;6.99;100.00;101173.22;5114358;28;20027;-37
2022/12/28 06:04:03;;;;;;;4.82;3.53;;;;;;;6.99;100.00;101167.84;5114183;28;20357;-37
2022/12/28 06:06:29;;;;;;;5.93;3.38;;;;;;;6.99;100.00;101167.84;5114232;28;20436;-37
2022/12/28 06:08:55;;;;;;;4.95;3.10;;;;;;;7.06;100.00;101176.75;5113969;28;20024;-37
2022/12/28 06:11:24;;;;;;;4.22;3.20;;;;;;;7.07;100.00;101175.72;5113482;28;20376;-37
2022/12/28 06:13:50;;;;;;;4.00;3.47;;;;;;;7.02;100.00;101156.66;5114473;28;20027;-37
2022/12/28 06:16:17;;;;;;;3.58;2.88;;;;;;;7.07;100.00;101168.47;5113894;28;20027;-37
2022/12/28 06:18:43;;;;;;;5.13;2.78;;;;;;;7.09;100.00;101149.47;5114084;28;20024;-37
2022/12/28 06:21:15;;;;;;;4.32;3.08;;;;;;;7.12;100.00;101157.13;5113718;28;20027;-37
2022/12/28 06:23:41;;;;;;;4.50;3.10;;;;;;;7.06;100.00;101141.78;5113710;28;20035;-37
2022/12/28 06:26:09;;;;;;;5.25;2.75;;;;;;;7.12;100.00;101159.81;5113385;28;20082;-37
2022/12/28 06:28:38;;;;;;;3.38;2.53;;;;;;;7.13;100.00;101158.81;5114100;28;20038;-37
2022/12/28 06:31:12;;;;;;;5.60;2.90;;;;;;;7.18;100.00;101164.41;5113280;28;20049;-37
2022/12/28 06:33:37;;;;;;;3.60;2.60;;;;;;;7.19;100.00;101166.88;5114291;28;20035;-37
2022/12/28 06:36:03;;;;;;;7.88;2.88;;;;;;;7.19;100.00;101158.00;5113488;28;20460;-37
2022/12/28 06:38:31;;;;;;;3.75;2.42;;;;;;;7.19;100.00;101145.38;5114027;28;20080;-37
2022/12/28 06:41:04;;;;;;;4.43;2.50;;;;;;;7.22;100.00;101161.13;5113511;28;20034;-37
2022/12/28 06:43:34;;;;;;;3.85;2.47;;;;;;;7.22;100.00;101157.56;5113441;28;20072;-37
2022/12/28 06:46:00;;;;;;;4.10;2.40;;;;;;;7.23;100.00;101153.88;5113740;28;20024;-37
2022/12/28 06:48:27;;;;;;;4.88;2.80;;;;;;;7.21;100.00;101148.69;5113437;28;20058;-37
2022/12/28 06:50:59;;;;;;;;;;;;;;;7.24;100.00;101147.47;5114543;28;20107;-37
2022/12/28 06:53:27;;;;;;;4.20;2.72;;;;;;;7.24;100.00;101152.84;5113842;28;19914;-37
2022/12/28 06:55:54;;;;;;;5.65;3.20;;;;;;;7.13;100.00;101132.75;5113323;28;20035;-37
2022/12/28 06:58:21;;;;;;;7.85;2.97;;;;;;;7.27;100.00;101147.06;5113571;28;20024;-37
2022/12/28 07:00:46;;;;;;;3.85;2.47;;;;;;;7.29;100.00;101147.69;5113246;28;20069;-37
2022/12/28 07:03:11;;;;;;;4.80;2.63;;;;;;;7.32;100.00;101141.91;5113437;28;20367;-37
2022/12/28 07:05:37;;;;;;;6.50;3.03;;;;;;;7.27;100.00;101128.25;5112948;28;20361;-37
2022/12/28 07:08:02;;;;;;;7.13;3.30;;;;;;;7.33;100.00;101137.34;5113788;28;20455;-37
2022/12/28 07:10:27;;;;;;;3.13;2.80;;;;;;;7.33;100.00;101129.28;5113206;28;20020;-37
2022/12/28 07:12:53;;;;;;;4.20;2.83;;;;;;;7.36;100.00;101137.75;5113127;28;20035;-37
2022/12/28 07:15:18;;;;;;;3.80;2.73;;;;;;;7.29;100.00;101120.78;5113105;28;20027;-37
2022/12/28 07:17:43;;;;;;;4.23;2.87;;;;;;;7.37;100.00;101136.75;5113112;28;20122;-37
2022/12/28 07:20:09;;;;;;;3.43;2.50;;;;;;;7.37;100.00;101130.50;5113479;28;20202;-37
2022/12/28 07:22:34;;;;;;;4.18;3.20;;;;;;;7.39;100.00;101148.13;5116231;28;20028;-37
2022/12/28 07:25:00;;;;;;;5.00;2.93;;;;;;;7.40;100.00;101141.72;5116937;28;20533;-37
2022/12/28 07:27:25;;;;;;;7.37;3.10;;;;;;;7.36;100.00;101135.06;5117414;28;20027;-36
2022/12/28 07:29:50;;;;;;;3.07;2.77;;;;;;;7.42;100.00;101136.97;5117091;28;20027;-37
2022/12/28 07:32:16;;;;;;;7.03;4.43;;;;;;;7.43;100.00;101132.41;5116970;28;20028;-36
2022/12/28 07:34:41;;;;;;;5.40;2.50;;;;;;;7.44;100.00;101140.28;5117203;28;20055;-37
2022/12/28 07:37:06;;;;;;;4.07;2.77;;;;;;;7.45;100.00;101143.78;5116911;28;20118;-36
2022/12/28 07:39:31;;;;;;;5.73;3.37;;;;;;;7.38;100.00;101130.34;5117481;28;20098;-37
2022/12/28 07:41:57;;;;;;;3.03;2.50;;;;;;;7.46;100.00;101127.44;5116760;28;20464;-37
2022/12/28 07:44:22;;;;;;;3.87;2.97;;;;;;;7.47;100.00;101130.97;5116890;28;20043;-36
2022/12/28 07:46:47;;;;;;;5.53;2.70;;;;;;;7.49;100.00;101132.41;5117291;28;20028;-37
2022/12/28 07:49:13;;;;;;;5.37;2.70;;;;;;;7.51;100.00;101140.28;5117388;28;20042;-37
2022/12/28 07:51:38;;;;;;;3.63;2.50;;;;;;;7.51;100.00;101142.97;5117270;28;20475;-37
2022/12/28 07:54:04;;;;;;;3.83;2.33;;;;;;;7.54;100.00;101141.75;5116606;28;20039;-37
2022/12/28 07:56:30;;;;;;;;;;;;;;;7.55;100.00;101146.09;5116792;28;20038;-38
2022/12/28 07:58:58;;;;;;;4.47;2.33;;;;;;;7.56;100.00;101147.75;5116841;28;19911;-38
2022/12/28 08:01:26;;;;;;;3.63;2.53;;;;;;;7.51;100.00;101134.91;5116451;28;20203;-38
2022/12/28 08:03:56;;;;;;;3.20;2.17;;;;;;;7.50;100.00;101135.94;5116846;28;20031;-37
2022/12/28 08:06:23;;;;;;;3.28;2.28;;;;;;;7.58;100.00;101153.78;5116643;28;20027;-37
2022/12/28 08:08:51;;;;;;;5.03;2.40;;;;;;;7.57;100.00;101146.75;5116140;28;20130;-36
2022/12/28 08:11:20;;;;;;;4.65;2.40;;;;;;;7.59;100.00;101148.19;5115968;28;20050;-37
2022/12/28 08:13:48;;;;;;;3.13;2.28;;;;;;;7.54;100.00;101141.75;5117020;28;20051;-37
2022/12/28 08:16:17;;;;;;;3.88;2.50;;;;;;;7.60;100.00;101152.53;5115847;28;20038;-37
2022/12/28 08:18:42;;;;;;;3.97;2.50;;;;;;;7.61;100.00;101142.59;5116604;28;20024;-37
2022/12/28 08:21:12;;;;;;;4.20;2.97;;;;;;;7.60;100.00;101141.75;5116646;28;20153;-37
2022/12/28 08:23:38;;;;;;;5.53;3.20;;;;;;;7.56;100.00;101129.72;5115940;28;20024;-37
2022/12/28 08:26:08;;;;;;;6.22;2.90;;;;;;;7.56;100.00;101118.97;5116254;28;20024;-37
2022/12/28 08:28:35;;;;;;;4.53;3.08;;;;;;;7.64;100.00;101134.09;5116440;28;20024;-37
2022/12/28 08:31:11;;;;;;;;;;;;;;;7.66;100.00;101137.41;5116358;28;20027;-35
2022/12/28 08:33:36;;;;;;;5.90;2.95;;;;;;;7.64;100.00;101126.84;5114790;28;19915;-38
2022/12/28 08:36:03;;;;;;;5.60;2.90;;;;;;;7.62;100.00;101120.03;5115795;28;20028;-37
2022/12/28 08:38:29;;;;;;;5.00;2.78;;;;;;;7.67;100.00;101128.31;5115739;28;20257;-36
2022/12/28 08:40:58;;;;;;;4.45;2.50;;;;;;;7.60;100.00;101122.09;5115726;28;20129;-37
2022/12/28 08:43:25;;;;;;;5.32;2.55;;;;;;;7.66;100.00;101123.97;5115382;28;20034;-37
2022/12/28 08:46:06;;;;;;;5.20;2.45;;;;;;;7.71;100.00;101121.47;5115326;28;20033;-36
2022/12/28 08:48:32;;;;;;;7.18;2.90;;;;;;;7.73;100.00;101122.94;5116312;28;20031;-36
2022/12/28 08:51:18;;;;;;;4.75;2.38;;;;;;;7.73;100.00;101119.41;5115931;28;20361;-37
2022/12/28 08:53:45;;;;;;;6.15;2.53;;;;;;;7.75;100.00;101115.47;5115472;28;20361;-36
2022/12/28 08:56:11;;;;;;;4.20;2.63;;;;;;;7.78;100.00;101121.50;5115170;28;20038;-36
2022/12/28 08:58:39;;;;;;;6.15;2.65;;;;;;;7.77;100.00;101115.28;5115304;28;20031;-36
2022/12/28 09:01:12;;;;;;;5.35;2.17;;;;;;;7.79;100.00;101117.78;5115119;28;20023;-37
2022/12/28 09:03:40;;;;;;;4.00;2.30;;;;;;;7.79;100.00;101115.91;5115510;28;20127;-37
2022/12/28 09:06:08;;;;;;;6.47;2.75;;;;;;;7.80;100.00;101116.72;5114948;28;20034;-37
2022/12/28 09:08:34;;;;;;;7.05;2.47;;;;;;;7.80;100.00;101114.84;5115193;28;20035;-36
2022/12/28 09:11:00;;;;;;;5.07;2.57;;;;;;;7.80;100.00;101117.56;5115156;28;20391;-36
2022/12/28 09:13:26;;;;;;;8.43;2.78;;;;;;;7.80;100.00;101120.25;5115425;28;20273;-37
2022/12/28 09:16:08;;;;;;;5.72;2.75;;;;;;;7.81;100.00;101123.75;5115342;28;20077;-37
2022/12/28 09:18:34;;;;;;;6.43;2.65;;;;;;;7.77;100.00;101117.97;5115044;28;20539;-38
2022/12/28 09:21:04;;;;;;;;;;;;;;;7.80;100.00;101122.94;5115352;28;20031;-37
2022/12/28 09:23:30;;;;;;;7.45;3.65;;;;;;;7.78;100.00;101132.28;5115330;28;19916;-38
2022/12/28 09:25:55;;;;;;;8.20;3.13;;;;;;;7.78;100.00;101119.63;5115293;28;20483;-37
2022/12/28 09:28:20;;;;;;;5.23;3.33;;;;;;;7.71;100.00;101116.94;5115642;28;20038;-37
2022/12/28 09:30:46;;;;;;;7.37;3.10;;;;;;;7.75;100.00;101120.84;5114593;28;20024;-37
2022/12/28 09:36:02;;;;;;;7.70;2.90;;;;;;;7.76;100.00;101127.09;5115066;28;20096;-38
2022/12/28 09:38:30;;;;;;;5.68;2.97;;;;;;;7.76;100.00;101119.03;5115334;28;20046;-37
2022/12/28 09:40:56;;;;;;;5.68;2.95;;;;;;;7.78;100.00;101125.03;5114580;28;20027;-37
2022/12/28 09:43:22;;;;;;;5.35;2.83;;;;;;;7.74;100.00;101113.81;5114078;28;20115;-36
2022/12/28 09:45:47;;;;;;;4.63;2.58;;;;;;;7.76;100.00;101121.72;5115212;28;20059;-36
2022/12/28 09:48:18;;;;;;;6.37;2.93;;;;;;;7.78;100.00;101116.94;5114840;28;20043;-36
2022/12/28 09:50:45;;;;;;;8.75;2.63;;;;;;;7.77;100.00;101117.97;5114612;28;20030;-36
2022/12/28 09:53:30;;;;;;;7.53;2.88;;;;;;;7.81;100.00;101118.38;5114875;28;20357;-36
2022/12/28 09:56:01;;;;;;;3.58;2.28;;;;;;;7.78;100.00;101113.44;5115037;28;20023;-36
2022/12/28 09:58:29;;;;;;;5.18;2.17;;;;;;;7.80;100.00;101108.66;5115015;28;20027;-36
2022/12/28 10:00:57;;;;;;;6.18;2.15;;;;;;;7.87;100.00;101113.03;5113776;28;20471;-36
2022/12/28 10:03:25;;;;;;;3.75;2.10;;;;;;;7.91;100.00;101119.66;5114039;28;20027;-36
2022/12/28 10:05:52;;;;;;;5.35;2.40;;;;;;;7.94;100.00;101118.41;5114096;28;20057;-36
2022/12/28 10:08:21;;;;;;;3.22;2.30;;;;;;;7.89;100.00;101110.94;5113945;28;20028;-36
2022/12/28 10:10:48;;;;;;;4.45;2.00;;;;;;;7.98;100.00;101120.47;5114318;28;20213;-37
2022/12/28 10:13:22;;;;;;;3.65;1.80;;;;;;;7.99;100.00;101118.59;5114426;28;20161;-37
2022/12/28 10:15:49;;;;;;;3.00;1.85;;;;;;;7.99;100.00;101108.66;5113929;28;20054;-36
2022/12/28 10:18:20;;;;;;;2.22;2.00;;;;;;;7.97;100.00;101105.34;5113928;28;20107;-37
2022/12/28 10:20:46;;;;;;;2.50;1.88;;;;;;;7.94;100.00;101105.75;5114325;28;20031;-37
2022/12/28 10:23:20;;;;;;;2.00;1.60;;;;;;;7.93;100.00;101093.34;5113834;28;20028;-36
2022/12/28 10:25:46;;;;;;;3.28;1.90;;;;;;;8.00;100.00;101102.25;5113466;28;20031;-37
2022/12/28 10:28:13;;;;;;;3.45;1.65;;;;;;;8.00;100.00;101101.41;5114031;28;20481;-36
2022/12/28 10:30:47;;;;;;;2.03;1.60;;;;;;;8.01;100.00;101095.00;5113645;28;20027;-36
2022/12/28 10:33:18;;;;;;;3.10;1.48;;;;;;;7.95;100.00;101096.66;5114182;28;20123;-36
2022/12/28 10:35:53;;;;;;;2.83;1.63;;;;;;;8.03;100.00;101094.78;5113590;28;20023;-36
2022/12/28 10:38:31;;;;;;;1.98;1.70;;;;;;;8.02;100.00;101099.34;5114326;28;20352;-36
2022/12/28 10:41:03;;;;;;;2.58;1.83;;;;;;;8.01;100.00;101089.63;5113632;28;20102;-37
2022/12/28 10:43:32;;;;;;;4.65;1.70;;;;;;;8.03;100.00;101089.41;5113225;28;20433;-37
2022/12/28 10:45:58;;;;;;;3.63;2.08;;;;;;;8.01;100.00;101095.00;5113678;28;20039;-36
2022/12/28 10:48:36;;;;;;;2.10;1.58;;;;;;;8.03;100.00;101094.78;5114198;28;20079;-36
2022/12/28 10:51:20;;;;;;;2.90;1.60;;;;;;;7.94;100.00;101076.13;5113513;28;20027;-36
2022/12/28 10:53:53;;;;;;;3.65;1.92;;;;;;;8.04;100.00;101091.06;5113846;28;20432;-36
2022/12/28 10:56:29;;;;;;;3.38;1.63;;;;;;;8.05;100.00;101079.22;5112879;28;20019;-37
2022/12/28 10:59:09;;;;;;;2.53;1.90;;;;;;;8.04;100.00;101081.09;5113324;28;20111;-37
2022/12/28 11:01:35;;;;;;;2.58;1.70;;;;;;;8.03;100.00;101074.06;5113253;28;20376;-37
2022/12/28 11:04:06;;;;;;;4.55;1.67;;;;;;;8.05;100.00;101080.06;5113841;28;20034;-37
2022/12/28 11:06:34;;;;;;;2.45;1.75;;;;;;;8.04;100.00;101069.50;5113209;28;20063;-37
2022/12/28 11:09:01;;;;;;;4.72;1.92;;;;;;;8.06;100.00;101070.13;5113519;28;20016;-37
2022/12/28 11:11:27;;;;;;;4.40;2.00;;;;;;;8.00;100.00;101067.25;5113134;28;20024;-37
2022/12/28 11:13:57;;;;;;;3.00;1.97;;;;;;;7.99;100.00;101060.19;5113293;28;20038;-37
2022/12/28 11:16:23;;;;;;;3.58;1.90;;;;;;;8.08;100.00;101060.78;5113185;28;20131;-37
2022/12/28 11:18:49;;;;;;;3.25;2.40;;;;;;;8.08;100.00;101055.41;5113369;28;20353;-36
2022/12/28 11:21:19;;;;;;;4.68;1.92;;;;;;;8.07;100.00;101048.38;5113097;28;20110;-36
2022/12/28 11:23:47;;;;;;;3.88;1.98;;;;;;;8.01;100.00;101035.75;5113213;28;20030;-37
2022/12/28 11:26:12;;;;;;;5.70;1.90;;;;;;;7.98;100.00;101023.53;5113122;28;20035;-36
2022/12/28 11:28:43;;;;;;;3.17;1.83;;;;;;;7.99;100.00;101019.78;5113450;28;20024;-36
2022/12/28 11:31:35;;;;;;;2.70;1.88;;;;;;;8.14;100.00;101037.56;5113425;28;20028;-37
2022/12/28 11:34:05;;;;;;;4.65;1.98;;;;;;;8.06;100.00;101029.75;5112342;28;20035;-36
2022/12/28 11:36:38;;;;;;;3.80;2.30;;;;;;;8.17;100.00;101042.56;5112858;28;20055;-37
2022/12/28 11:39:31;;;;;;;4.03;2.28;;;;;;;8.19;100.00;101035.91;5113491;28;20101;-37
2022/12/28 11:42:00;;;;;;;2.63;1.80;;;;;;;8.19;100.00;101025.13;5112969;28;20031;-37
2022/12/28 11:44:28;;;;;;;2.55;1.73;;;;;;;8.14;100.00;101007.94;5113121;28;20103;-37
2022/12/28 11:46:59;;;;;;;3.80;1.98;;;;;;;8.20;100.00;101020.59;5112881;28;20103;-37
2022/12/28 11:49:28;;;;;;;3.63;1.92;;;;;;;8.21;100.00;101016.84;5113596;28;20039;-37
2022/12/28 11:52:15;;;;;;;4.40;2.40;;;;;;;8.22;100.00;101018.50;5112530;28;20031;-36
2022/12/28 11:55:01;;;;;;;5.88;2.70;;;;;;;8.22;100.00;101011.25;5113311;28;20031;-36
2022/12/28 11:57:38;;;;;;;3.65;2.20;;;;;;;8.24;100.00;101009.16;5113216;28;20060;-37
2022/12/28 12:00:16;;;;;;;2.88;2.05;;;;;;;8.23;100.00;101009.38;5112603;28;20321;-37
2022/12/28 12:02:46;;;;;;;7.10;3.40;;;;;;;8.05;100.00;100968.81;5112411;28;20110;-37